createdAt,value
2023-01-30T00:01:47.865Z,4.40
2023-01-30T00:04:17.101Z,4.40
2023-01-30T00:06:47.026Z,4.50
2023-01-30T00:09:15.939Z,4.50
2023-01-30T00:11:42.723Z,4.40
2023-01-30T00:14:11.039Z,4.50
2023-01-30T00:16:37.910Z,4.40
2023-01-30T00:19:04.733Z,4.40
2023-01-30T00:21:31.434Z,4.40
2023-01-30T00:24:01.892Z,4.40
2023-01-30T00:26:28.950Z,4.50
2023-01-30T00:28:55.653Z,4.40
2023-01-30T00:31:22.389Z,4.40
2023-01-30T00:33:49.076Z,4.40
2023-01-30T00:36:15.787Z,4.40
2023-01-30T00:38:43.294Z,4.50
2023-01-30T00:41:13.214Z,4.50
2023-01-30T00:44:01.212Z,4.50
2023-01-30T00:46:51.381Z,4.60
2023-01-30T00:49:18.624Z,4.60
2023-01-30T00:51:51.736Z,4.60
2023-01-30T00:54:19.642Z,4.70
2023-01-30T00:56:46.761Z,4.70
2023-01-30T00:59:13.561Z,4.70
2023-01-30T01:01:40.291Z,4.80
2023-01-30T01:04:08.844Z,4.80
2023-01-30T01:06:35.769Z,4.80
2023-01-30T01:09:05.543Z,4.80
2023-01-30T01:11:32.494Z,4.90
2023-01-30T01:14:01.774Z,4.90
2023-01-30T01:16:30.691Z,4.90
2023-01-30T01:18:57.764Z,4.90
2023-01-30T01:21:26.409Z,4.90
2023-01-30T01:23:55.340Z,4.90
2023-01-30T01:26:22.567Z,4.90
2023-01-30T01:28:49.566Z,4.90
2023-01-30T01:31:20.221Z,4.90
2023-01-30T01:33:48.394Z,4.80
2023-01-30T01:36:29.438Z,4.90
2023-01-30T01:39:01.943Z,4.90
2023-01-30T01:41:28.760Z,4.90
2023-01-30T01:44:28.277Z,4.90
2023-01-30T01:46:59.489Z,4.90
2023-01-30T01:49:32.792Z,4.90
2023-01-30T01:52:07.952Z,4.90
2023-01-30T01:54:39.037Z,5.00
2023-01-30T01:57:14.227Z,5.00
2023-01-30T02:00:12.461Z,5.00
2023-01-30T02:02:44.883Z,5.00
2023-01-30T02:05:13.951Z,5.00
2023-01-30T02:08:01.092Z,5.10
2023-01-30T02:10:49.260Z,5.10
2023-01-30T02:13:18.782Z,5.20
2023-01-30T02:15:45.685Z,5.30
2023-01-30T02:18:14.567Z,5.30
2023-01-30T02:21:03.092Z,5.30
2023-01-30T02:23:48.245Z,5.40
2023-01-30T02:26:32.622Z,5.40
2023-01-30T02:29:04.040Z,5.40
2023-01-30T02:31:44.398Z,5.40
2023-01-30T02:34:23.081Z,5.30
2023-01-30T02:37:07.919Z,5.30
2023-01-30T02:40:12.485Z,5.40
2023-01-30T02:43:09.083Z,5.40
2023-01-30T02:45:58.934Z,5.30
2023-01-30T02:48:49.258Z,5.30
2023-01-30T02:51:23.740Z,5.30
2023-01-30T02:53:51.561Z,5.30
2023-01-30T02:56:21.537Z,5.30
2023-01-30T02:59:00.804Z,5.30
2023-01-30T03:01:55.498Z,5.30
2023-01-30T03:04:31.995Z,5.30
2023-01-30T03:07:46.228Z,5.30
2023-01-30T03:10:21.010Z,5.40
2023-01-30T03:13:33.013Z,5.50
2023-01-30T03:16:17.806Z,5.50
2023-01-30T03:18:46.168Z,5.60
2023-01-30T03:21:12.992Z,5.70
2023-01-30T03:23:39.893Z,5.80
2023-01-30T03:26:15.055Z,5.90
2023-01-30T03:28:42.328Z,5.90
2023-01-30T03:31:09.847Z,6.00
2023-01-30T03:33:36.735Z,6.00
2023-01-30T03:36:03.690Z,6.10
2023-01-30T03:38:30.585Z,6.20
2023-01-30T03:40:57.502Z,6.20
2023-01-30T03:43:24.720Z,6.20
2023-01-30T03:45:51.608Z,6.20
2023-01-30T03:48:18.367Z,6.20
2023-01-30T03:50:45.117Z,6.30
2023-01-30T03:53:13.521Z,6.30
2023-01-30T03:55:40.572Z,6.30
2023-01-30T03:58:07.405Z,6.30
2023-01-30T04:00:35.821Z,6.30
2023-01-30T04:03:02.553Z,6.30
2023-01-30T04:05:29.344Z,6.20
2023-01-30T04:08:00.256Z,6.20
2023-01-30T04:10:27.507Z,6.10
2023-01-30T04:12:55.499Z,6.00
2023-01-30T04:15:22.314Z,6.00
2023-01-30T04:17:49.050Z,5.90
2023-01-30T04:20:17.884Z,6.00
2023-01-30T04:22:45.874Z,5.90
2023-01-30T04:25:14.082Z,5.90
2023-01-30T04:27:40.787Z,5.90
2023-01-30T04:30:08.128Z,5.90
2023-01-30T04:32:34.907Z,5.90
2023-01-30T04:35:01.668Z,6.00
2023-01-30T04:37:31.674Z,6.00
2023-01-30T04:39:58.407Z,6.10
2023-01-30T04:42:25.627Z,6.20
2023-01-30T04:44:52.434Z,6.10
2023-01-30T04:47:19.198Z,6.20
2023-01-30T04:49:47.491Z,6.30
2023-01-30T04:52:14.256Z,6.40
2023-01-30T04:54:41.193Z,6.50
2023-01-30T04:57:07.912Z,6.50
2023-01-30T04:59:35.496Z,6.60
2023-01-30T05:02:03.833Z,6.60
2023-01-30T05:04:33.115Z,6.60
2023-01-30T05:06:59.846Z,6.70
2023-01-30T05:09:26.647Z,6.70
2023-01-30T05:11:53.402Z,6.70
2023-01-30T05:14:20.175Z,6.80
2023-01-30T05:16:46.901Z,6.80
2023-01-30T05:19:14.267Z,6.90
2023-01-30T05:21:42.570Z,6.90
2023-01-30T05:24:09.324Z,6.90
2023-01-30T05:26:36.147Z,7.00
2023-01-30T05:29:02.904Z,7.00
2023-01-30T05:31:29.708Z,7.00
2023-01-30T05:33:57.457Z,7.00
2023-01-30T05:36:24.809Z,7.00
2023-01-30T05:38:51.780Z,7.00
2023-01-30T05:41:18.847Z,7.10
2023-01-30T05:43:49.936Z,7.10
2023-01-30T05:46:17.013Z,7.10
2023-01-30T05:48:43.975Z,7.10
2023-01-30T05:51:28.470Z,7.10
2023-01-30T05:53:55.121Z,7.10
2023-01-30T05:56:23.080Z,7.20
2023-01-30T05:58:59.632Z,7.20
2023-01-30T06:01:27.033Z,7.20
2023-01-30T06:03:54.632Z,7.20
2023-01-30T06:06:22.591Z,7.20
2023-01-30T06:08:53.937Z,7.20
2023-01-30T06:11:21.015Z,7.30
2023-01-30T06:13:47.770Z,7.30
2023-01-30T06:16:16.665Z,7.30
2023-01-30T06:18:43.410Z,7.30
2023-01-30T06:21:10.283Z,7.30
2023-01-30T06:23:37.567Z,7.30
2023-01-30T06:26:08.150Z,7.30
2023-01-30T06:28:37.103Z,7.30
2023-01-30T06:31:07.547Z,7.30
2023-01-30T06:33:34.902Z,7.40
2023-01-30T06:36:01.591Z,7.40
2023-01-30T06:38:30.719Z,7.40
2023-01-30T06:40:58.748Z,7.40
2023-01-30T06:43:25.532Z,7.40
2023-01-30T06:45:53.793Z,7.40
2023-01-30T06:48:20.504Z,7.40
2023-01-30T06:50:48.287Z,7.40
2023-01-30T06:53:15.184Z,7.40
2023-01-30T06:55:42.378Z,7.40
2023-01-30T06:58:11.567Z,7.40
2023-01-30T07:00:40.040Z,7.40
2023-01-30T07:03:13.731Z,7.40
2023-01-30T07:05:41.595Z,7.40
2023-01-30T07:08:09.441Z,7.40
2023-01-30T07:10:36.374Z,7.40
2023-01-30T07:13:04.089Z,7.50
2023-01-30T07:15:31.429Z,7.40
2023-01-30T07:17:58.399Z,7.50
2023-01-30T07:20:25.656Z,7.50
2023-01-30T07:22:54.268Z,7.50
2023-01-30T07:25:23.319Z,7.60
2023-01-30T07:27:51.747Z,7.60
2023-01-30T07:30:19.515Z,7.60
2023-01-30T07:32:51.078Z,7.60
2023-01-30T07:35:18.356Z,7.60
2023-01-30T07:37:47.288Z,7.60
2023-01-30T07:40:15.564Z,7.60
2023-01-30T07:42:43.224Z,7.60
2023-01-30T07:45:10.680Z,7.50
2023-01-30T07:47:38.808Z,7.50
2023-01-30T07:50:06.341Z,7.60
2023-01-30T07:52:34.330Z,7.50
2023-01-30T07:55:01.696Z,7.50
2023-01-30T07:57:29.602Z,7.60
2023-01-30T07:59:56.319Z,7.60
2023-01-30T08:02:23.241Z,7.60
2023-01-30T08:04:51.095Z,7.60
2023-01-30T08:07:17.891Z,7.60
2023-01-30T08:09:45.989Z,7.60
2023-01-30T08:12:12.737Z,7.60
2023-01-30T08:14:41.983Z,7.60
2023-01-30T08:17:08.740Z,7.60
2023-01-30T08:19:35.462Z,7.60
2023-01-30T08:22:02.262Z,7.60
2023-01-30T08:24:29.042Z,7.60
2023-01-30T08:26:57.203Z,7.60
2023-01-30T08:29:24.228Z,7.60
2023-01-30T08:31:51.044Z,7.70
2023-01-30T08:34:17.742Z,7.70
2023-01-30T08:36:47.068Z,7.70
2023-01-30T08:39:14.206Z,7.70
2023-01-30T08:41:43.273Z,7.70
2023-01-30T08:44:15.444Z,7.70
2023-01-30T08:46:42.203Z,7.80
2023-01-30T08:49:08.958Z,7.80
2023-01-30T08:51:35.641Z,7.90
2023-01-30T08:54:02.616Z,7.90
2023-01-30T08:56:29.717Z,7.90
2023-01-30T08:58:56.597Z,7.90
2023-01-30T09:01:26.250Z,7.90
2023-01-30T09:03:53.054Z,8.00
2023-01-30T09:06:20.026Z,8.00
2023-01-30T09:08:46.717Z,8.00
2023-01-30T09:11:13.474Z,8.00
2023-01-30T09:13:43.565Z,8.10
2023-01-30T09:16:11.939Z,8.10
2023-01-30T09:18:44.483Z,8.10
2023-01-30T09:21:12.558Z,8.10
2023-01-30T09:23:39.716Z,8.20
2023-01-30T09:26:06.827Z,8.20
2023-01-30T09:28:35.431Z,8.30
2023-01-30T09:31:03.901Z,8.30
2023-01-30T09:33:32.981Z,8.30
2023-01-30T09:36:01.290Z,8.40
2023-01-30T09:38:28.173Z,8.40
2023-01-30T09:41:19.967Z,8.40
2023-01-30T09:43:54.190Z,8.40
2023-01-30T09:46:45.626Z,8.40
2023-01-30T09:49:40.046Z,8.50
2023-01-30T09:52:22.297Z,8.50
2023-01-30T09:54:49.461Z,8.50
2023-01-30T09:57:25.015Z,8.60
2023-01-30T10:00:13.715Z,8.60
2023-01-30T10:03:11.608Z,8.50
2023-01-30T10:05:49.316Z,8.50
2023-01-30T10:08:16.013Z,8.50
2023-01-30T10:11:08.845Z,8.60
2023-01-30T10:14:10.809Z,8.70
2023-01-30T10:16:44.672Z,8.80
2023-01-30T10:19:26.144Z,8.90
2023-01-30T10:22:15.315Z,9.00
2023-01-30T10:25:20.117Z,9.10
2023-01-30T10:27:56.417Z,9.20
2023-01-30T10:30:23.441Z,9.30
2023-01-30T10:33:07.387Z,9.30
2023-01-30T10:35:43.153Z,9.30
2023-01-30T10:38:33.315Z,9.40
2023-01-30T10:41:08.869Z,9.40
2023-01-30T10:43:42.757Z,9.40
2023-01-30T10:46:23.658Z,9.50
2023-01-30T10:48:54.761Z,9.50
2023-01-30T10:51:56.694Z,9.60
2023-01-30T10:54:47.327Z,9.70
2023-01-30T10:57:19.611Z,9.70
2023-01-30T11:00:25.042Z,9.70
2023-01-30T11:03:14.447Z,9.60
2023-01-30T11:05:56.051Z,9.60
2023-01-30T11:08:34.956Z,9.60
2023-01-30T11:11:21.511Z,9.50
2023-01-30T11:13:49.346Z,9.40
2023-01-30T11:16:16.343Z,9.40
2023-01-30T11:21:43.983Z,9.40
2023-01-30T11:24:19.602Z,9.40
2023-01-30T11:26:48.458Z,9.40
2023-01-30T11:29:24.626Z,9.40
2023-01-30T11:31:52.954Z,9.40
2023-01-30T11:34:25.297Z,9.40
2023-01-30T11:36:53.877Z,9.50
2023-01-30T11:39:23.572Z,9.50
2023-01-30T11:42:02.995Z,9.50
2023-01-30T11:44:33.133Z,9.40
2023-01-30T11:47:06.829Z,9.40
2023-01-30T11:49:51.675Z,9.40
2023-01-30T11:52:35.168Z,9.50
2023-01-30T11:55:08.529Z,9.50
2023-01-30T11:57:58.610Z,9.50
2023-01-30T12:00:37.164Z,9.60
2023-01-30T12:03:14.105Z,9.50
2023-01-30T12:05:44.547Z,9.50
2023-01-30T12:08:42.727Z,9.50
2023-01-30T12:11:47.523Z,9.50
2023-01-30T12:14:27.492Z,9.60
2023-01-30T12:17:05.209Z,9.50
2023-01-30T12:20:02.206Z,9.50
2023-01-30T12:22:49.955Z,9.60
2023-01-30T12:25:23.594Z,9.60
2023-01-30T12:30:59.470Z,9.60
2023-01-30T12:33:33.481Z,9.60
2023-01-30T12:36:21.492Z,9.60
2023-01-30T12:39:35.465Z,9.60
2023-01-30T12:42:25.951Z,9.60
2023-01-30T12:45:20.722Z,9.60
2023-01-30T12:47:54.717Z,9.60
2023-01-30T12:50:33.580Z,9.60
2023-01-30T12:53:23.279Z,9.60
2023-01-30T12:56:08.347Z,9.60
2023-01-30T12:58:50.282Z,9.60
2023-01-30T13:01:30.052Z,9.60
2023-01-30T13:04:16.094Z,9.60
2023-01-30T13:07:18.529Z,9.60
2023-01-30T13:10:06.314Z,9.60
2023-01-30T13:12:45.543Z,9.60
2023-01-30T13:15:44.077Z,9.60
2023-01-30T13:18:30.999Z,9.50
2023-01-30T13:21:18.130Z,9.60
2023-01-30T13:24:06.140Z,9.50
2023-01-30T13:26:37.764Z,9.50
2023-01-30T13:29:21.306Z,9.50
2023-01-30T13:31:57.169Z,9.40
2023-01-30T13:34:41.267Z,9.40
2023-01-30T13:37:12.711Z,9.40
2023-01-30T13:39:50.181Z,9.40
2023-01-30T13:42:44.008Z,9.40
2023-01-30T13:45:36.020Z,9.50
2023-01-30T13:48:33.131Z,9.60
2023-01-30T13:51:27.149Z,9.60
2023-01-30T13:54:08.919Z,9.60
2023-01-30T13:56:46.035Z,9.60
2023-01-30T13:59:41.104Z,9.60
2023-01-30T14:02:20.261Z,9.60
2023-01-30T14:04:49.491Z,9.60
2023-01-30T14:07:23.861Z,9.60
2023-01-30T14:10:12.108Z,9.50
2023-01-30T14:13:04.931Z,9.50
2023-01-30T14:15:34.181Z,9.50
2023-01-30T14:18:05.354Z,9.50
2023-01-30T14:20:44.391Z,9.50
2023-01-30T14:23:32.525Z,9.60
2023-01-30T14:26:01.569Z,9.50
2023-01-30T14:28:37.008Z,9.60
2023-01-30T14:31:04.836Z,9.60
2023-01-30T14:33:39.015Z,9.60
2023-01-30T14:36:05.897Z,9.60
2023-01-30T14:38:37.587Z,9.60
2023-01-30T14:41:07.159Z,9.60
2023-01-30T14:43:42.973Z,9.50
2023-01-30T14:46:22.180Z,9.70
2023-01-30T14:48:56.721Z,9.60
2023-01-30T14:51:45.213Z,9.60
2023-01-30T14:54:16.341Z,9.60
2023-01-30T14:56:52.155Z,9.60
2023-01-30T14:59:42.849Z,9.60
2023-01-30T15:02:30.009Z,9.60
2023-01-30T15:05:05.778Z,9.60
2023-01-30T15:07:44.643Z,9.60
2023-01-30T15:10:38.195Z,9.60
2023-01-30T15:13:38.191Z,9.60
2023-01-30T15:16:41.974Z,9.50
2023-01-30T15:19:38.890Z,9.50
2023-01-30T15:22:27.588Z,9.50
2023-01-30T15:25:38.765Z,9.40
2023-01-30T15:28:21.944Z,9.40
2023-01-30T15:31:13.953Z,9.40
2023-01-30T15:33:51.741Z,9.40
2023-01-30T15:36:31.455Z,9.40
2023-01-30T15:39:07.568Z,9.40
2023-01-30T15:41:41.842Z,9.40
2023-01-30T15:44:32.968Z,9.30
2023-01-30T15:47:20.665Z,9.40
2023-01-30T15:49:55.990Z,9.40
2023-01-30T15:52:30.252Z,9.40
2023-01-30T15:55:02.274Z,9.30
2023-01-30T15:57:34.857Z,9.40
2023-01-30T16:00:03.869Z,9.40
2023-01-30T16:02:42.843Z,9.40
2023-01-30T16:05:25.433Z,9.40
2023-01-30T16:07:56.619Z,9.40
2023-01-30T16:10:30.309Z,9.40
2023-01-30T16:13:03.669Z,9.40
2023-01-30T16:15:50.172Z,9.40
2023-01-30T16:18:26.486Z,9.40
2023-01-30T16:21:03.216Z,9.40
2023-01-30T16:23:42.895Z,9.40
2023-01-30T16:26:18.064Z,9.40
2023-01-30T16:28:45.394Z,9.30
2023-01-30T16:31:12.454Z,9.30
2023-01-30T16:33:39.356Z,9.30
2023-01-30T16:36:19.763Z,9.30
2023-01-30T16:38:53.803Z,9.30
2023-01-30T16:41:39.587Z,9.30
2023-01-30T16:44:29.233Z,9.30
2023-01-30T16:47:25.938Z,9.30
2023-01-30T16:49:54.683Z,9.30
2023-01-30T16:52:36.783Z,9.30
2023-01-30T16:55:09.534Z,9.30
2023-01-30T16:57:41.846Z,9.30
2023-01-30T17:00:29.443Z,9.20
2023-01-30T17:02:59.629Z,9.30
2023-01-30T17:05:29.500Z,9.30
2023-01-30T17:07:58.297Z,9.30
2023-01-30T17:10:37.481Z,9.30
2023-01-30T17:13:05.176Z,9.20
2023-01-30T17:15:33.430Z,9.20
2023-01-30T17:18:01.792Z,9.30
2023-01-30T17:20:37.222Z,9.30
2023-01-30T17:23:09.597Z,9.30
2023-01-30T17:25:45.093Z,9.30
2023-01-30T17:28:17.999Z,9.30
2023-01-30T17:30:46.886Z,9.30
2023-01-30T17:33:13.638Z,9.30
2023-01-30T17:35:41.514Z,9.20
2023-01-30T17:38:10.746Z,9.20
2023-01-30T17:40:38.402Z,9.20
2023-01-30T17:43:06.976Z,9.20
2023-01-30T17:45:36.502Z,9.20
2023-01-30T17:48:04.683Z,9.10
2023-01-30T17:50:32.749Z,9.10
2023-01-30T17:53:01.003Z,9.10
2023-01-30T17:55:29.105Z,9.00
2023-01-30T17:57:56.610Z,9.00
2023-01-30T18:00:25.099Z,9.00
2023-01-30T18:02:53.167Z,9.00
2023-01-30T18:05:23.579Z,9.00
2023-01-30T18:07:50.379Z,8.90
2023-01-30T18:10:20.101Z,8.90
2023-01-30T18:12:47.123Z,8.90
2023-01-30T18:15:21.270Z,8.90
2023-01-30T18:17:49.771Z,8.90
2023-01-30T18:20:20.176Z,8.90
2023-01-30T18:22:48.915Z,9.00
2023-01-30T18:25:16.348Z,9.00
2023-01-30T18:27:44.386Z,9.00
2023-01-30T18:30:18.130Z,9.00
2023-01-30T18:32:53.801Z,9.00
2023-01-30T18:35:22.309Z,9.00
2023-01-30T18:37:50.241Z,9.00
2023-01-30T18:40:22.565Z,9.00
2023-01-30T18:42:49.848Z,9.00
2023-01-30T18:45:21.898Z,9.00
2023-01-30T18:47:48.663Z,9.00
2023-01-30T18:50:15.926Z,9.10
2023-01-30T18:52:42.662Z,9.00
2023-01-30T18:55:09.574Z,9.00
2023-01-30T18:57:36.446Z,9.00
2023-01-30T19:00:04.479Z,9.00
2023-01-30T19:02:31.291Z,9.00
2023-01-30T19:04:58.148Z,9.00
2023-01-30T19:07:27.245Z,9.00
2023-01-30T19:09:53.948Z,9.00
2023-01-30T19:12:41.388Z,8.90
2023-01-30T19:15:09.266Z,8.90
2023-01-30T19:17:37.312Z,8.90
2023-01-30T19:20:11.065Z,8.90
2023-01-30T19:22:39.757Z,8.90
2023-01-30T19:25:07.394Z,8.90
2023-01-30T19:27:37.391Z,8.90
2023-01-30T19:30:05.232Z,8.90
2023-01-30T19:32:31.975Z,8.90
2023-01-30T19:34:59.748Z,8.90
2023-01-30T19:37:26.474Z,8.90
2023-01-30T19:39:53.160Z,8.80
2023-01-30T19:42:23.945Z,8.80
2023-01-30T19:44:50.709Z,8.80
2023-01-30T19:47:17.686Z,8.80
2023-01-30T19:49:44.459Z,8.70
2023-01-30T19:52:11.333Z,8.80
2023-01-30T19:54:38.069Z,8.80
2023-01-30T19:57:04.764Z,8.80
2023-01-30T19:59:31.510Z,8.80
2023-01-30T20:01:59.265Z,8.80
2023-01-30T20:04:26.077Z,8.80
2023-01-30T20:06:52.753Z,8.80
2023-01-30T20:09:21.201Z,8.80
2023-01-30T20:11:47.985Z,8.80
2023-01-30T20:14:14.820Z,8.70
2023-01-30T20:16:41.588Z,8.70
2023-01-30T20:19:16.003Z,8.70
2023-01-30T20:21:44.248Z,8.70
2023-01-30T20:24:15.843Z,8.70
2023-01-30T20:26:44.290Z,8.70
2023-01-30T20:29:12.489Z,8.70
2023-01-30T20:31:39.812Z,8.70
2023-01-30T20:34:11.341Z,8.70
2023-01-30T20:36:39.968Z,8.70
2023-01-30T20:39:07.960Z,8.70
2023-01-30T20:41:38.717Z,8.70
2023-01-30T20:44:10.693Z,8.60
2023-01-30T20:46:43.683Z,8.60
2023-01-30T20:49:15.927Z,8.60
2023-01-30T20:51:45.486Z,8.60
2023-01-30T20:54:14.290Z,8.60
2023-01-30T20:56:44.459Z,8.60
2023-01-30T20:59:13.426Z,8.60
2023-01-30T21:01:40.670Z,8.60
2023-01-30T21:04:11.330Z,8.60
2023-01-30T21:06:44.114Z,8.60
2023-01-30T21:09:18.678Z,8.70
2023-01-30T21:11:47.431Z,8.60
2023-01-30T21:14:15.475Z,8.60
2023-01-30T21:16:42.695Z,8.60
2023-01-30T21:19:13.786Z,8.60
2023-01-30T21:21:54.117Z,8.70
2023-01-30T21:24:27.136Z,8.70
2023-01-30T21:26:54.622Z,8.70
2023-01-30T21:29:27.505Z,8.70
2023-01-30T21:31:58.736Z,8.70
2023-01-30T21:34:25.645Z,8.70
2023-01-30T21:37:11.054Z,8.70
2023-01-30T21:39:58.773Z,8.70
2023-01-30T21:42:44.492Z,8.70
2023-01-30T21:45:11.239Z,8.90
2023-01-30T21:47:41.390Z,8.90
2023-01-30T21:50:09.847Z,8.90
2023-01-30T21:52:37.903Z,8.90
2023-01-30T21:55:07.306Z,8.90
2023-01-30T21:57:34.030Z,8.80
2023-01-30T22:00:00.952Z,8.90
2023-01-30T22:02:27.710Z,8.80
2023-01-30T22:04:57.075Z,8.80
2023-01-30T22:07:23.809Z,8.80
2023-01-30T22:09:50.927Z,8.80
2023-01-30T22:12:17.597Z,8.70
2023-01-30T22:14:44.435Z,8.70
2023-01-30T22:17:11.156Z,8.70
2023-01-30T22:19:39.697Z,8.80
2023-01-30T22:22:06.983Z,8.80
2023-01-30T22:24:34.129Z,8.80
2023-01-30T22:27:00.887Z,8.80
2023-01-30T22:29:29.180Z,8.80
2023-01-30T22:31:56.022Z,8.80
2023-01-30T22:34:22.871Z,8.70
2023-01-30T22:36:51.751Z,8.80
2023-01-30T22:39:18.499Z,8.70
2023-01-30T22:41:45.439Z,8.80
2023-01-30T22:44:12.140Z,8.70
2023-01-30T22:46:40.215Z,8.70
2023-01-30T22:49:09.603Z,8.80
2023-01-30T22:51:39.776Z,8.80
2023-01-30T22:54:10.218Z,8.80
2023-01-30T22:56:40.764Z,8.80
2023-01-30T22:59:08.470Z,8.80
2023-01-30T23:01:39.593Z,8.70
2023-01-30T23:04:15.518Z,8.80
2023-01-30T23:06:43.121Z,8.70
2023-01-30T23:09:13.368Z,8.70
2023-01-30T23:12:07.200Z,8.70
2023-01-30T23:14:34.023Z,8.70
2023-01-30T23:17:22.118Z,8.70
2023-01-30T23:19:48.945Z,8.70
2023-01-30T23:22:16.785Z,8.70
2023-01-30T23:24:43.486Z,8.70
2023-01-30T23:27:10.248Z,8.70
2023-01-30T23:29:37.965Z,8.70
2023-01-30T23:32:06.526Z,8.70
2023-01-30T23:34:33.317Z,8.70
2023-01-30T23:37:00.189Z,8.70
2023-01-30T23:39:27.976Z,8.70
2023-01-30T23:41:54.732Z,8.70
2023-01-30T23:44:23.775Z,8.70
2023-01-30T23:46:50.552Z,8.70
2023-01-30T23:49:17.279Z,8.70
2023-01-30T23:51:46.034Z,8.70
2023-01-30T23:54:13.839Z,8.70
2023-01-30T23:56:43.516Z,8.70
2023-01-30T23:59:11.832Z,8.70
